Saint Joseph, Tennessee
Current Conditions -  °F | °C
As of 6:23 AM on Monday 26 Jan 2015 (Local Time) from KMSL Reporting Station
Overcast Overcast  
Wind Chill: 30°   Ceiling: 1100
Heat Index: 37°   Visibility: 8mi
Dew Point: 32°   Wind: 12mph
Humidity: 81%   Direction: 320°NW
Pressure: 29.98"   Gusts: 22mph
Location:  35.04°N, 87.51°W
Report Text: KMSL 261223Z AUTO 32010G19KT 8SM OVC011 03/00 A2998 RMK AO2
Loading
Personal Weather Stations






























Interactive Weather Map New forecast layout! Learn more

10-Day Weather Forecast

Advertisements
Track Severe Weather on mobile